Flight Track Log - Related Links

Times and Time Zones

All times are in EDT time to prevent confusion due to time zone crossing. See the CDG1158 flight status page for this flight to view local times or setup timezone preferences in your user account.

Time Position Orientation Groundspeed Altitude Reporting Facility
EDT Latitude Longitude Course Direction KTS MPH feet Rate Location/Type
Fri 01:08:00 AM 35.5075 117.3424 176° South  Level Estimated
Fri 01:09:00 AM 35.4111 117.3513 176° South  Level Estimated
Fri 01:10:00 AM 35.3147 117.3602 176° South  Level Estimated
Fri 01:11:00 AM 35.2184 117.3690 176° South  Level Estimated
Fri 01:12:00 AM 35.1220 117.3778 176° South  Level Estimated
Fri 01:13:00 AM 35.0256 117.3866 176° South  Level Estimated
Fri 01:14:00 AM 34.9293 117.3953 176° South  Level Estimated
Fri 01:15:00 AM 34.8329 117.4041 176° South  Level Estimated
Fri 01:16:00 AM 34.7365 117.4128 176° South  Level Estimated
Fri 01:17:00 AM 34.6401 117.4215 176° South  Level Estimated
Fri 01:18:00 AM 34.5438 117.4302 176° South  Level Estimated
Fri 01:19:00 AM 34.4474 117.4388 176° South  Level Estimated
Fri 01:20:00 AM 34.3510 117.4475 176° South  Level Estimated
Fri 01:21:00 AM 34.2547 117.4561 176° South  Level Estimated
Fri 01:22:00 AM 34.1583 117.4647 176° South  Level Estimated
Fri 01:23:00 AM 34.0619 117.4733 176° South  Level Estimated
Fri 01:24:00 AM 33.9655 117.4818 176° South  Level Estimated
Fri 01:25:00 AM 33.8691 117.4904 176° South  Level Estimated
Fri 01:26:00 AM 33.7728 117.4989 176° South  Level Estimated
Fri 01:27:00 AM 33.6764 117.5074 176° South  Level Estimated
Fri 01:28:00 AM 33.5800 117.5159 176° South  Level Estimated
Fri 01:29:00 AM 33.4836 117.5244 176° South  Level Estimated
Fri 01:30:00 AM 33.3872 117.5328 176° South  Level Estimated
Fri 01:31:00 AM 33.2909 117.5412 176° South  Level Estimated
Fri 01:32:00 AM 33.1945 117.5497 176° South  Level Estimated
Fri 01:33:00 AM 33.0981 117.5580 176° South  Level Estimated
Fri 01:34:00 AM 33.0017 117.5664 176° South  Level Estimated
Fri 01:35:00 AM 32.9053 117.5748 176° South  Level Estimated
Fri 01:36:00 AM 32.8089 117.5831 176° South  Level Estimated
Fri 01:37:00 AM 32.7126 117.5914 176° South  Level Estimated
Fri 01:38:00 AM 32.6162 117.5997 176° South  Level Estimated
Fri 01:39:00 AM 32.5198 117.6080 176° South  Level Estimated
Fri 01:40:00 AM 32.4234 117.6163 176° South  Level Estimated
Fri 01:41:00 AM 32.3270 117.6245 176° South  Level Estimated
Fri 01:42:00 AM 32.2306 117.6328 176° South  Level Estimated
Fri 01:43:00 AM 32.1342 117.6410 176° South  Level Estimated
Fri 01:44:00 AM 32.0379 117.6492 176° South  Level Estimated
Fri 01:45:00 AM 31.9415 117.6573 176° South  Level Estimated
Fri 01:46:00 AM 31.8451 117.6655 176° South  Level Estimated
Fri 01:47:00 AM 31.7487 117.6736 176° South  Level Estimated
Fri 01:48:00 AM 31.6523 117.6818 176° South  Level Estimated
Fri 01:49:00 AM 31.5559 117.6899 176° South  Level Estimated
Fri 01:50:00 AM 31.4595 117.6980 176° South  Level Estimated
Fri 01:51:00 AM 31.3631 117.7060 176° South  Level Estimated
Fri 01:52:00 AM 31.2667 117.7141 176° South  Level Estimated
Fri 01:53:00 AM 31.1703 117.7222 176° South  Level Estimated
Fri 01:54:00 AM 31.0739 117.7302 176° South  Level Estimated
Fri 01:55:00 AM 30.9776 117.7382 176° South  Level Estimated
Fri 01:56:00 AM 30.8811 117.7462 176° South  Level Estimated
Fri 01:57:00 AM 30.7848 117.7542 176° South  Level Estimated
Fri 01:58:00 AM 30.6884 117.7621 176° South  Level Estimated
Fri 01:59:00 AM 30.5920 117.7701 176° South  Level Estimated
Fri 02:00:00 AM 30.4956 117.7780 176° South  Level Estimated
Fri 02:01:00 AM 30.3992 117.7859 176° South  Level Estimated
Fri 02:02:00 AM 30.3028 117.7938 176° South  Level Estimated
Fri 02:03:00 AM 30.2064 117.8017 176° South  Level Estimated
Fri 02:04:00 AM 30.1100 117.8096 176° South  Level Estimated
Fri 02:05:00 AM 30.0136 117.8174 176° South  Level Estimated
Fri 02:06:00 AM 29.9172 117.8253 176° South  Level Estimated
Fri 02:07:00 AM 29.8208 117.8331 176° South  Level Estimated
Fri 02:08:00 AM 29.7244 117.8409 176° South  Level Estimated
Fri 02:09:00 AM 29.6280 117.8487 176° South  Level Estimated
Fri 02:10:00 AM 29.5316 117.8565 176° South  Level Estimated
Fri 02:11:00 AM 29.4352 117.8642 176° South  Level Estimated
Fri 02:12:00 AM 29.3388 117.8720 176° South  Level Estimated
Fri 02:13:00 AM 29.2424 117.8797 176° South  Level Estimated
Fri 02:14:00 AM 29.1460 117.8874 176° South  Level Estimated
Fri 02:15:00 AM 29.0496 117.8951 176° South  Level Estimated
Fri 02:16:00 AM 28.9532 117.9028 176° South  Level Estimated
Fri 02:17:00 AM 28.8568 117.9105 176° South  Level Estimated
Fri 02:18:00 AM 28.7604 117.9182 176° South  Level Estimated
Fri 02:19:00 AM 28.6639 117.9258 176° South  Level Estimated
Fri 02:20:00 AM 28.5676 117.9335 176° South  Level Estimated
Fri 02:21:00 AM 28.4711 117.9411 176° South  Level Estimated
Fri 02:22:00 AM 28.3747 117.9487 176° South  Level Estimated
Fri 02:23:00 AM 28.2783 117.9563 176° South  Level Estimated
Fri 02:24:00 AM 28.1819 117.9639 176° South  Level Estimated
Fri 02:25:00 AM 28.0855 117.9714 176° South  Level Estimated
Fri 02:26:00 AM 27.9891 117.9790 176° South  Level Estimated
Fri 02:27:00 AM 27.8927 117.9865 176° South  Level Estimated
Fri 02:28:00 AM 27.7963 117.9940 176° South  Level Estimated
Fri 02:29:00 AM 27.7019 118.0014 176° South  Level Estimated
Fri 02:30:00 AM 27.7019 118.0014 North  Level Estimated
Fri 02:31:00 AM 27.7019 118.0014 North  Level Estimated
Fri 02:32:00 AM 27.7019 118.0014 North  Level Estimated
Fri 02:33:00 AM 27.7019 118.0014 North  Level Estimated
Fri 02:34:00 AM 27.7019 118.0014 North  Level Estimated
Fri 02:35:00 AM 27.7019 118.0014 North  Level Estimated
Fri 02:36:00 AM 27.7019 118.0014 North  Level Estimated
Fri 02:37:00 AM 27.7019 118.0014 North  Level Estimated
Fri 02:38:00 AM 27.7019 118.0014 North  Level Estimated
Fri 02:39:00 AM 27.7019 118.0014 North  Level Estimated
Fri 02:40:00 AM 27.7019 118.0014 North  Level Estimated
Fri 02:41:00 AM 27.7019 118.0014 North  Level Estimated
Fri 02:42:00 AM 27.7019 118.0014 North  Level Estimated
Fri 02:43:00 AM 27.7019 118.0014 North  Level Estimated
Fri 02:44:00 AM 27.7019 118.0014 North  Level Estimated
Fri 02:45:00 AM 27.7019 118.0014 North  Level Estimated

Login

Don't have an account? Register now (free) for customized features, flight alerts, and more!